sensor_id;sensor_type;location;lat;lon;timestamp;P1;durP1;ratioP1;P2;durP2;ratioP2
7501;SDS011;3792;47.740;7.606;2024-01-07T00:01:45;0.90;;;0.80;;
7501;SDS011;3792;47.740;7.606;2024-01-07T00:04:15;1.50;;;1.40;;
7501;SDS011;3792;47.740;7.606;2024-01-07T00:06:42;1.67;;;1.57;;
7501;SDS011;3792;47.740;7.606;2024-01-07T00:09:10;1.40;;;1.33;;
7501;SDS011;3792;47.740;7.606;2024-01-07T00:11:38;1.47;;;1.40;;
7501;SDS011;3792;47.740;7.606;2024-01-07T00:14:05;1.17;;;1.07;;
7501;SDS011;3792;47.740;7.606;2024-01-07T00:16:32;1.40;;;1.30;;
7501;SDS011;3792;47.740;7.606;2024-01-07T00:18:59;1.87;;;1.30;;
7501;SDS011;3792;47.740;7.606;2024-01-07T00:21:27;0.80;;;0.80;;
7501;SDS011;3792;47.740;7.606;2024-01-07T00:23:54;1.60;;;1.50;;
7501;SDS011;3792;47.740;7.606;2024-01-07T00:26:21;1.33;;;1.23;;
7501;SDS011;3792;47.740;7.606;2024-01-07T00:28:48;1.87;;;1.40;;
7501;SDS011;3792;47.740;7.606;2024-01-07T00:31:15;1.00;;;1.00;;
7501;SDS011;3792;47.740;7.606;2024-01-07T00:33:42;0.90;;;0.90;;
7501;SDS011;3792;47.740;7.606;2024-01-07T00:36:09;0.87;;;0.87;;
7501;SDS011;3792;47.740;7.606;2024-01-07T00:38:38;1.30;;;0.83;;
7501;SDS011;3792;47.740;7.606;2024-01-07T00:41:05;0.93;;;0.93;;
7501;SDS011;3792;47.740;7.606;2024-01-07T00:43:32;0.83;;;0.83;;
7501;SDS011;3792;47.740;7.606;2024-01-07T00:45:59;1.17;;;1.07;;
7501;SDS011;3792;47.740;7.606;2024-01-07T00:48:26;1.10;;;1.00;;
7501;SDS011;3792;47.740;7.606;2024-01-07T00:50:53;1.40;;;1.30;;
7501;SDS011;3792;47.740;7.606;2024-01-07T00:53:21;0.90;;;0.90;;
7501;SDS011;3792;47.740;7.606;2024-01-07T00:55:49;1.10;;;1.00;;
7501;SDS011;3792;47.740;7.606;2024-01-07T00:58:16;1.60;;;1.50;;
7501;SDS011;3792;47.740;7.606;2024-01-07T01:00:43;1.10;;;1.00;;
7501;SDS011;3792;47.740;7.606;2024-01-07T01:03:10;1.03;;;1.03;;
7501;SDS011;3792;47.740;7.606;2024-01-07T01:05:37;2.13;;;1.67;;
7501;SDS011;3792;47.740;7.606;2024-01-07T01:08:04;1.43;;;1.23;;
7501;SDS011;3792;47.740;7.606;2024-01-07T01:10:32;1.60;;;1.00;;
7501;SDS011;3792;47.740;7.606;2024-01-07T01:13:00;1.33;;;1.23;;
7501;SDS011;3792;47.740;7.606;2024-01-07T01:15:27;1.30;;;1.20;;
7501;SDS011;3792;47.740;7.606;2024-01-07T01:17:54;1.70;;;1.60;;
7501;SDS011;3792;47.740;7.606;2024-01-07T01:20:21;1.87;;;1.77;;
7501;SDS011;3792;47.740;7.606;2024-01-07T01:22:48;2.10;;;1.90;;
7501;SDS011;3792;47.740;7.606;2024-01-07T01:25:15;2.20;;;2.00;;
7501;SDS011;3792;47.740;7.606;2024-01-07T01:27:42;2.37;;;2.17;;
7501;SDS011;3792;47.740;7.606;2024-01-07T01:30:11;2.13;;;2.03;;
7501;SDS011;3792;47.740;7.606;2024-01-07T01:32:39;2.40;;;2.20;;
7501;SDS011;3792;47.740;7.606;2024-01-07T01:35:06;2.07;;;1.97;;
7501;SDS011;3792;47.740;7.606;2024-01-07T01:37:34;2.00;;;1.90;;
7501;SDS011;3792;47.740;7.606;2024-01-07T01:40:02;1.90;;;1.80;;
7501;SDS011;3792;47.740;7.606;2024-01-07T01:42:30;1.80;;;1.70;;
7501;SDS011;3792;47.740;7.606;2024-01-07T01:44:57;2.23;;;1.90;;
7501;SDS011;3792;47.740;7.606;2024-01-07T01:47:27;1.70;;;1.60;;
7501;SDS011;3792;47.740;7.606;2024-01-07T01:49:55;1.90;;;1.80;;
7501;SDS011;3792;47.740;7.606;2024-01-07T01:52:21;1.90;;;1.80;;
7501;SDS011;3792;47.740;7.606;2024-01-07T01:54:49;1.60;;;1.50;;
7501;SDS011;3792;47.740;7.606;2024-01-07T01:57:17;1.60;;;1.50;;
7501;SDS011;3792;47.740;7.606;2024-01-07T01:59:48;1.80;;;1.70;;
7501;SDS011;3792;47.740;7.606;2024-01-07T02:02:15;1.80;;;1.70;;
7501;SDS011;3792;47.740;7.606;2024-01-07T02:04:44;1.60;;;1.50;;
7501;SDS011;3792;47.740;7.606;2024-01-07T02:07:11;1.57;;;1.47;;
7501;SDS011;3792;47.740;7.606;2024-01-07T02:09:38;1.90;;;1.80;;
7501;SDS011;3792;47.740;7.606;2024-01-07T02:12:06;1.60;;;1.50;;
7501;SDS011;3792;47.740;7.606;2024-01-07T02:14:36;2.23;;;2.03;;
7501;SDS011;3792;47.740;7.606;2024-01-07T02:17:04;2.20;;;1.73;;
7501;SDS011;3792;47.740;7.606;2024-01-07T02:19:31;2.57;;;2.37;;
7501;SDS011;3792;47.740;7.606;2024-01-07T02:22:00;2.70;;;2.50;;
7501;SDS011;3792;47.740;7.606;2024-01-07T02:24:28;3.13;;;2.80;;
7501;SDS011;3792;47.740;7.606;2024-01-07T02:26:56;2.30;;;2.10;;
7501;SDS011;3792;47.740;7.606;2024-01-07T02:29:27;2.87;;;2.60;;
7501;SDS011;3792;47.740;7.606;2024-01-07T02:31:54;3.20;;;2.80;;
7501;SDS011;3792;47.740;7.606;2024-01-07T02:34:21;3.57;;;3.17;;
7501;SDS011;3792;47.740;7.606;2024-01-07T02:36:48;3.53;;;3.23;;
7501;SDS011;3792;47.740;7.606;2024-01-07T02:39:15;3.20;;;2.90;;
7501;SDS011;3792;47.740;7.606;2024-01-07T02:41:43;4.20;;;3.80;;
7501;SDS011;3792;47.740;7.606;2024-01-07T02:44:10;4.07;;;3.40;;
7501;SDS011;3792;47.740;7.606;2024-01-07T02:46:37;3.40;;;3.10;;
7501;SDS011;3792;47.740;7.606;2024-01-07T02:49:04;3.00;;;2.70;;
7501;SDS011;3792;47.740;7.606;2024-01-07T02:51:31;3.77;;;3.17;;
7501;SDS011;3792;47.740;7.606;2024-01-07T02:53:59;3.90;;;3.50;;
7501;SDS011;3792;47.740;7.606;2024-01-07T02:56:25;4.70;;;3.87;;
7501;SDS011;3792;47.740;7.606;2024-01-07T02:58:53;3.97;;;3.57;;
7501;SDS011;3792;47.740;7.606;2024-01-07T03:01:21;6.03;;;4.50;;
7501;SDS011;3792;47.740;7.606;2024-01-07T03:03:48;5.10;;;4.60;;
7501;SDS011;3792;47.740;7.606;2024-01-07T03:06:16;7.70;;;5.13;;
7501;SDS011;3792;47.740;7.606;2024-01-07T03:08:43;6.03;;;5.17;;
7501;SDS011;3792;47.740;7.606;2024-01-07T03:11:10;6.77;;;5.70;;
7501;SDS011;3792;47.740;7.606;2024-01-07T03:13:37;6.20;;;5.17;;
7501;SDS011;3792;47.740;7.606;2024-01-07T03:16:06;6.50;;;5.03;;
7501;SDS011;3792;47.740;7.606;2024-01-07T03:18:33;6.60;;;5.73;;
7501;SDS011;3792;47.740;7.606;2024-01-07T03:21:00;7.23;;;5.20;;
7501;SDS011;3792;47.740;7.606;2024-01-07T03:23:27;6.80;;;5.90;;
7501;SDS011;3792;47.740;7.606;2024-01-07T03:25:54;7.30;;;5.63;;
7501;SDS011;3792;47.740;7.606;2024-01-07T03:28:22;8.00;;;5.50;;
7501;SDS011;3792;47.740;7.606;2024-01-07T03:30:49;6.13;;;4.70;;
7501;SDS011;3792;47.740;7.606;2024-01-07T03:33:18;5.33;;;4.80;;
7501;SDS011;3792;47.740;7.606;2024-01-07T03:35:45;6.60;;;5.53;;
7501;SDS011;3792;47.740;7.606;2024-01-07T03:38:12;7.97;;;5.70;;
7501;SDS011;3792;47.740;7.606;2024-01-07T03:40:40;7.33;;;5.23;;
7501;SDS011;3792;47.740;7.606;2024-01-07T03:43:07;7.00;;;5.40;;
7501;SDS011;3792;47.740;7.606;2024-01-07T03:45:34;5.87;;;5.20;;
7501;SDS011;3792;47.740;7.606;2024-01-07T03:48:01;6.53;;;5.80;;
7501;SDS011;3792;47.740;7.606;2024-01-07T03:50:30;5.70;;;5.07;;
7501;SDS011;3792;47.740;7.606;2024-01-07T03:52:57;4.37;;;3.70;;
7501;SDS011;3792;47.740;7.606;2024-01-07T03:55:24;5.40;;;4.43;;
7501;SDS011;3792;47.740;7.606;2024-01-07T03:57:51;6.10;;;4.10;;
7501;SDS011;3792;47.740;7.606;2024-01-07T04:00:18;4.17;;;3.77;;
7501;SDS011;3792;47.740;7.606;2024-01-07T04:02:46;4.97;;;4.40;;
7501;SDS011;3792;47.740;7.606;2024-01-07T04:05:13;5.37;;;4.17;;
7501;SDS011;3792;47.740;7.606;2024-01-07T04:07:41;4.60;;;4.03;;
7501;SDS011;3792;47.740;7.606;2024-01-07T04:10:08;4.43;;;4.03;;
7501;SDS011;3792;47.740;7.606;2024-01-07T04:12:36;5.63;;;4.67;;
7501;SDS011;3792;47.740;7.606;2024-01-07T04:15:03;6.27;;;4.70;;
7501;SDS011;3792;47.740;7.606;2024-01-07T04:17:31;6.90;;;6.07;;
7501;SDS011;3792;47.740;7.606;2024-01-07T04:19:58;5.23;;;4.43;;
7501;SDS011;3792;47.740;7.606;2024-01-07T04:22:25;5.63;;;4.57;;
7501;SDS011;3792;47.740;7.606;2024-01-07T04:24:53;5.33;;;4.57;;
7501;SDS011;3792;47.740;7.606;2024-01-07T04:27:20;6.13;;;5.10;;
7501;SDS011;3792;47.740;7.606;2024-01-07T04:29:49;5.60;;;4.40;;
7501;SDS011;3792;47.740;7.606;2024-01-07T04:32:16;6.43;;;5.50;;
7501;SDS011;3792;47.740;7.606;2024-01-07T04:34:43;6.77;;;5.50;;
7501;SDS011;3792;47.740;7.606;2024-01-07T04:37:10;6.40;;;5.20;;
7501;SDS011;3792;47.740;7.606;2024-01-07T04:39:37;8.70;;;5.83;;
7501;SDS011;3792;47.740;7.606;2024-01-07T04:42:06;7.90;;;6.07;;
7501;SDS011;3792;47.740;7.606;2024-01-07T04:44:33;8.00;;;5.93;;
7501;SDS011;3792;47.740;7.606;2024-01-07T04:47:00;6.17;;;5.57;;
7501;SDS011;3792;47.740;7.606;2024-01-07T04:49:27;8.33;;;5.90;;
7501;SDS011;3792;47.740;7.606;2024-01-07T04:51:54;9.13;;;7.30;;
7501;SDS011;3792;47.740;7.606;2024-01-07T04:54:21;8.83;;;6.57;;
7501;SDS011;3792;47.740;7.606;2024-01-07T04:56:48;9.00;;;6.67;;
7501;SDS011;3792;47.740;7.606;2024-01-07T04:59:16;7.63;;;6.77;;
7501;SDS011;3792;47.740;7.606;2024-01-07T05:01:43;10.40;;;7.07;;
7501;SDS011;3792;47.740;7.606;2024-01-07T05:04:10;10.47;;;7.80;;
7501;SDS011;3792;47.740;7.606;2024-01-07T05:06:38;9.43;;;7.30;;
7501;SDS011;3792;47.740;7.606;2024-01-07T05:09:05;9.87;;;7.23;;
7501;SDS011;3792;47.740;7.606;2024-01-07T05:11:32;10.73;;;7.50;;
7501;SDS011;3792;47.740;7.606;2024-01-07T05:13:59;11.37;;;7.87;;
7501;SDS011;3792;47.740;7.606;2024-01-07T05:16:27;10.97;;;7.70;;
7501;SDS011;3792;47.740;7.606;2024-01-07T05:18:54;12.97;;;9.03;;
7501;SDS011;3792;47.740;7.606;2024-01-07T05:21:21;10.30;;;7.50;;
7501;SDS011;3792;47.740;7.606;2024-01-07T05:23:48;11.00;;;8.50;;
7501;SDS011;3792;47.740;7.606;2024-01-07T05:26:15;9.37;;;7.23;;
7501;SDS011;3792;47.740;7.606;2024-01-07T05:28:42;9.97;;;7.20;;
7501;SDS011;3792;47.740;7.606;2024-01-07T05:31:13;10.93;;;7.83;;
7501;SDS011;3792;47.740;7.606;2024-01-07T05:33:42;8.67;;;7.57;;
7501;SDS011;3792;47.740;7.606;2024-01-07T05:36:10;13.47;;;8.60;;
7501;SDS011;3792;47.740;7.606;2024-01-07T05:38:37;10.13;;;7.67;;
7501;SDS011;3792;47.740;7.606;2024-01-07T05:41:04;12.10;;;8.20;;
7501;SDS011;3792;47.740;7.606;2024-01-07T05:43:31;10.40;;;7.93;;
7501;SDS011;3792;47.740;7.606;2024-01-07T05:45:58;9.57;;;6.93;;
7501;SDS011;3792;47.740;7.606;2024-01-07T05:48:25;8.63;;;6.60;;
7501;SDS011;3792;47.740;7.606;2024-01-07T05:50:54;6.93;;;5.67;;
7501;SDS011;3792;47.740;7.606;2024-01-07T05:53:21;9.00;;;5.87;;
7501;SDS011;3792;47.740;7.606;2024-01-07T05:55:48;7.30;;;5.73;;
7501;SDS011;3792;47.740;7.606;2024-01-07T05:58:15;5.50;;;4.83;;
7501;SDS011;3792;47.740;7.606;2024-01-07T06:00:42;5.83;;;4.87;;
7501;SDS011;3792;47.740;7.606;2024-01-07T06:03:10;5.57;;;4.77;;
7501;SDS011;3792;47.740;7.606;2024-01-07T06:05:37;5.87;;;4.93;;
7501;SDS011;3792;47.740;7.606;2024-01-07T06:08:06;6.63;;;5.33;;
7501;SDS011;3792;47.740;7.606;2024-01-07T06:10:33;7.37;;;4.97;;
7501;SDS011;3792;47.740;7.606;2024-01-07T06:13:00;9.43;;;6.97;;
7501;SDS011;3792;47.740;7.606;2024-01-07T06:15:28;8.23;;;6.27;;
7501;SDS011;3792;47.740;7.606;2024-01-07T06:17:55;6.73;;;4.70;;
7501;SDS011;3792;47.740;7.606;2024-01-07T06:20:22;5.27;;;4.63;;
7501;SDS011;3792;47.740;7.606;2024-01-07T06:22:49;5.83;;;4.70;;
7501;SDS011;3792;47.740;7.606;2024-01-07T06:25:18;7.30;;;4.93;;
7501;SDS011;3792;47.740;7.606;2024-01-07T06:27:45;5.83;;;4.80;;
7501;SDS011;3792;47.740;7.606;2024-01-07T06:30:12;6.80;;;4.90;;
7501;SDS011;3792;47.740;7.606;2024-01-07T06:32:42;6.73;;;5.20;;
7501;SDS011;3792;47.740;7.606;2024-01-07T06:35:10;5.30;;;4.73;;
7501;SDS011;3792;47.740;7.606;2024-01-07T06:37:37;5.10;;;4.60;;
7501;SDS011;3792;47.740;7.606;2024-01-07T06:40:05;6.87;;;4.73;;
7501;SDS011;3792;47.740;7.606;2024-01-07T06:42:34;5.67;;;4.60;;
7501;SDS011;3792;47.740;7.606;2024-01-07T06:45:01;5.77;;;4.37;;
7501;SDS011;3792;47.740;7.606;2024-01-07T06:47:29;4.93;;;4.47;;
7501;SDS011;3792;47.740;7.606;2024-01-07T06:49:56;5.47;;;4.57;;
7501;SDS011;3792;47.740;7.606;2024-01-07T06:52:23;5.17;;;4.50;;
7501;SDS011;3792;47.740;7.606;2024-01-07T06:54:50;5.20;;;4.47;;
7501;SDS011;3792;47.740;7.606;2024-01-07T06:57:17;5.60;;;4.40;;
7501;SDS011;3792;47.740;7.606;2024-01-07T06:59:45;6.03;;;4.87;;
7501;SDS011;3792;47.740;7.606;2024-01-07T07:02:12;7.17;;;4.87;;
7501;SDS011;3792;47.740;7.606;2024-01-07T07:04:39;7.07;;;5.37;;
7501;SDS011;3792;47.740;7.606;2024-01-07T07:07:06;7.03;;;5.90;;
7501;SDS011;3792;47.740;7.606;2024-01-07T07:09:33;5.90;;;4.80;;
7501;SDS011;3792;47.740;7.606;2024-01-07T07:12:00;8.20;;;6.17;;
7501;SDS011;3792;47.740;7.606;2024-01-07T07:14:27;8.40;;;5.60;;
7501;SDS011;3792;47.740;7.606;2024-01-07T07:16:56;8.43;;;6.00;;
7501;SDS011;3792;47.740;7.606;2024-01-07T07:19:23;7.83;;;5.80;;
7501;SDS011;3792;47.740;7.606;2024-01-07T07:21:50;8.07;;;5.60;;
7501;SDS011;3792;47.740;7.606;2024-01-07T07:24:17;7.93;;;5.90;;
7501;SDS011;3792;47.740;7.606;2024-01-07T07:26:44;8.90;;;6.27;;
7501;SDS011;3792;47.740;7.606;2024-01-07T07:29:11;10.33;;;6.60;;
7501;SDS011;3792;47.740;7.606;2024-01-07T07:31:38;8.70;;;6.10;;
7501;SDS011;3792;47.740;7.606;2024-01-07T07:34:08;8.53;;;6.50;;
7501;SDS011;3792;47.740;7.606;2024-01-07T07:36:36;9.83;;;6.57;;
7501;SDS011;3792;47.740;7.606;2024-01-07T07:39:05;10.07;;;7.13;;
7501;SDS011;3792;47.740;7.606;2024-01-07T07:41:32;8.73;;;6.63;;
7501;SDS011;3792;47.740;7.606;2024-01-07T07:43:59;10.20;;;6.23;;
7501;SDS011;3792;47.740;7.606;2024-01-07T07:46:26;5.87;;;4.27;;
7501;SDS011;3792;47.740;7.606;2024-01-07T07:48:53;5.80;;;4.30;;
7501;SDS011;3792;47.740;7.606;2024-01-07T07:51:22;5.67;;;4.13;;
7501;SDS011;3792;47.740;7.606;2024-01-07T07:53:49;5.83;;;4.00;;
7501;SDS011;3792;47.740;7.606;2024-01-07T07:56:17;6.47;;;4.80;;
7501;SDS011;3792;47.740;7.606;2024-01-07T07:59:06;6.33;;;4.10;;
7501;SDS011;3792;47.740;7.606;2024-01-07T08:01:54;5.93;;;3.97;;
7501;SDS011;3792;47.740;7.606;2024-01-07T08:04:21;6.47;;;4.10;;
7501;SDS011;3792;47.740;7.606;2024-01-07T08:06:49;5.10;;;3.80;;
7501;SDS011;3792;47.740;7.606;2024-01-07T08:09:16;5.80;;;3.43;;
7501;SDS011;3792;47.740;7.606;2024-01-07T08:11:44;5.87;;;4.43;;
7501;SDS011;3792;47.740;7.606;2024-01-07T08:14:11;6.20;;;3.80;;
7501;SDS011;3792;47.740;7.606;2024-01-07T08:16:38;5.87;;;3.97;;
7501;SDS011;3792;47.740;7.606;2024-01-07T08:19:05;5.73;;;4.07;;
7501;SDS011;3792;47.740;7.606;2024-01-07T08:21:33;5.53;;;4.27;;
7501;SDS011;3792;47.740;7.606;2024-01-07T08:24:01;4.70;;;4.00;;
7501;SDS011;3792;47.740;7.606;2024-01-07T08:26:29;5.87;;;4.30;;
7501;SDS011;3792;47.740;7.606;2024-01-07T08:28:56;11.60;;;7.17;;
7501;SDS011;3792;47.740;7.606;2024-01-07T08:31:23;26.37;;;15.40;;
7501;SDS011;3792;47.740;7.606;2024-01-07T08:33:51;11.73;;;7.77;;
7501;SDS011;3792;47.740;7.606;2024-01-07T08:36:19;8.73;;;6.53;;
7501;SDS011;3792;47.740;7.606;2024-01-07T08:38:46;13.57;;;8.57;;
7501;SDS011;3792;47.740;7.606;2024-01-07T08:41:16;9.73;;;6.90;;
7501;SDS011;3792;47.740;7.606;2024-01-07T08:43:44;8.93;;;6.47;;
7501;SDS011;3792;47.740;7.606;2024-01-07T08:46:12;10.80;;;7.40;;
7501;SDS011;3792;47.740;7.606;2024-01-07T08:48:41;11.67;;;9.17;;
7501;SDS011;3792;47.740;7.606;2024-01-07T08:51:08;11.47;;;8.50;;
7501;SDS011;3792;47.740;7.606;2024-01-07T08:53:35;10.27;;;7.87;;
7501;SDS011;3792;47.740;7.606;2024-01-07T08:56:03;9.47;;;6.73;;
7501;SDS011;3792;47.740;7.606;2024-01-07T08:58:33;8.53;;;6.60;;
7501;SDS011;3792;47.740;7.606;2024-01-07T09:01:01;8.03;;;5.90;;
7501;SDS011;3792;47.740;7.606;2024-01-07T09:03:28;7.67;;;5.87;;
7501;SDS011;3792;47.740;7.606;2024-01-07T09:05:56;9.23;;;6.43;;
7501;SDS011;3792;47.740;7.606;2024-01-07T09:08:23;17.63;;;11.07;;
7501;SDS011;3792;47.740;7.606;2024-01-07T09:10:51;10.13;;;6.93;;
7501;SDS011;3792;47.740;7.606;2024-01-07T09:13:18;9.00;;;6.10;;
7501;SDS011;3792;47.740;7.606;2024-01-07T09:15:47;8.63;;;6.27;;
7501;SDS011;3792;47.740;7.606;2024-01-07T09:18:16;7.53;;;6.03;;
7501;SDS011;3792;47.740;7.606;2024-01-07T09:20:44;7.40;;;5.33;;
7501;SDS011;3792;47.740;7.606;2024-01-07T09:23:12;6.03;;;5.03;;
7501;SDS011;3792;47.740;7.606;2024-01-07T09:25:41;8.67;;;5.60;;
7501;SDS011;3792;47.740;7.606;2024-01-07T09:28:08;8.37;;;5.57;;
7501;SDS011;3792;47.740;7.606;2024-01-07T09:30:36;8.60;;;5.97;;
7501;SDS011;3792;47.740;7.606;2024-01-07T09:33:05;7.87;;;6.10;;
7501;SDS011;3792;47.740;7.606;2024-01-07T09:35:34;12.57;;;7.27;;
7501;SDS011;3792;47.740;7.606;2024-01-07T09:38:01;11.93;;;7.97;;
7501;SDS011;3792;47.740;7.606;2024-01-07T09:40:29;11.43;;;7.77;;
7501;SDS011;3792;47.740;7.606;2024-01-07T09:42:56;13.53;;;8.70;;
7501;SDS011;3792;47.740;7.606;2024-01-07T09:45:24;10.10;;;7.93;;
7501;SDS011;3792;47.740;7.606;2024-01-07T09:47:53;12.00;;;7.33;;
7501;SDS011;3792;47.740;7.606;2024-01-07T09:50:21;13.23;;;9.10;;
7501;SDS011;3792;47.740;7.606;2024-01-07T09:52:48;15.80;;;10.20;;
7501;SDS011;3792;47.740;7.606;2024-01-07T09:55:26;28.17;;;15.63;;
7501;SDS011;3792;47.740;7.606;2024-01-07T09:57:56;20.30;;;12.47;;
7501;SDS011;3792;47.740;7.606;2024-01-07T10:00:24;13.37;;;9.60;;
7501;SDS011;3792;47.740;7.606;2024-01-07T10:02:53;19.43;;;11.63;;
7501;SDS011;3792;47.740;7.606;2024-01-07T10:05:22;14.70;;;9.37;;
7501;SDS011;3792;47.740;7.606;2024-01-07T10:07:49;16.83;;;10.20;;
7501;SDS011;3792;47.740;7.606;2024-01-07T10:10:19;15.57;;;10.70;;
7501;SDS011;3792;47.740;7.606;2024-01-07T10:12:46;19.60;;;13.10;;
7501;SDS011;3792;47.740;7.606;2024-01-07T10:15:13;15.33;;;10.73;;
7501;SDS011;3792;47.740;7.606;2024-01-07T10:17:41;14.87;;;9.53;;
7501;SDS011;3792;47.740;7.606;2024-01-07T10:20:09;12.07;;;8.70;;
7501;SDS011;3792;47.740;7.606;2024-01-07T10:22:38;13.10;;;9.03;;
7501;SDS011;3792;47.740;7.606;2024-01-07T10:25:05;16.83;;;10.00;;
7501;SDS011;3792;47.740;7.606;2024-01-07T10:27:33;14.27;;;10.13;;
7501;SDS011;3792;47.740;7.606;2024-01-07T10:30:01;12.73;;;9.20;;
7501;SDS011;3792;47.740;7.606;2024-01-07T10:32:29;14.27;;;9.97;;
7501;SDS011;3792;47.740;7.606;2024-01-07T10:34:57;14.00;;;9.80;;
7501;SDS011;3792;47.740;7.606;2024-01-07T10:37:29;12.10;;;9.57;;
7501;SDS011;3792;47.740;7.606;2024-01-07T10:39:59;14.90;;;10.23;;
7501;SDS011;3792;47.740;7.606;2024-01-07T10:42:29;15.63;;;10.70;;
7501;SDS011;3792;47.740;7.606;2024-01-07T10:44:57;16.13;;;10.03;;
7501;SDS011;3792;47.740;7.606;2024-01-07T10:47:25;16.77;;;10.80;;
7501;SDS011;3792;47.740;7.606;2024-01-07T10:49:56;12.47;;;9.73;;
7501;SDS011;3792;47.740;7.606;2024-01-07T10:52:25;12.57;;;9.23;;
7501;SDS011;3792;47.740;7.606;2024-01-07T10:54:56;15.07;;;9.73;;
7501;SDS011;3792;47.740;7.606;2024-01-07T10:57:32;15.93;;;10.37;;
7501;SDS011;3792;47.740;7.606;2024-01-07T11:00:06;14.40;;;10.10;;
7501;SDS011;3792;47.740;7.606;2024-01-07T11:02:34;12.17;;;9.10;;
7501;SDS011;3792;47.740;7.606;2024-01-07T11:05:11;14.77;;;10.30;;
7501;SDS011;3792;47.740;7.606;2024-01-07T11:07:46;13.97;;;10.90;;
7501;SDS011;3792;47.740;7.606;2024-01-07T11:10:20;16.53;;;10.23;;
7501;SDS011;3792;47.740;7.606;2024-01-07T11:12:54;14.20;;;10.03;;
7501;SDS011;3792;47.740;7.606;2024-01-07T11:18:20;23.57;;;12.43;;
7501;SDS011;3792;47.740;7.606;2024-01-07T11:20:48;15.67;;;9.63;;
7501;SDS011;3792;47.740;7.606;2024-01-07T11:23:29;16.30;;;10.43;;
7501;SDS011;3792;47.740;7.606;2024-01-07T11:25:58;13.50;;;9.57;;
7501;SDS011;3792;47.740;7.606;2024-01-07T11:28:46;22.23;;;12.50;;
7501;SDS011;3792;47.740;7.606;2024-01-07T11:31:16;22.70;;;13.27;;
7501;SDS011;3792;47.740;7.606;2024-01-07T11:33:48;19.87;;;13.03;;
7501;SDS011;3792;47.740;7.606;2024-01-07T11:36:16;14.90;;;10.70;;
7501;SDS011;3792;47.740;7.606;2024-01-07T11:38:44;11.83;;;8.33;;
7501;SDS011;3792;47.740;7.606;2024-01-07T11:41:14;17.17;;;12.33;;
7501;SDS011;3792;47.740;7.606;2024-01-07T11:46:30;14.27;;;10.50;;
7501;SDS011;3792;47.740;7.606;2024-01-07T11:48:58;13.70;;;9.77;;
7501;SDS011;3792;47.740;7.606;2024-01-07T11:51:27;13.30;;;9.33;;
7501;SDS011;3792;47.740;7.606;2024-01-07T11:53:55;12.37;;;9.50;;
7501;SDS011;3792;47.740;7.606;2024-01-07T11:56:23;11.47;;;8.17;;
7501;SDS011;3792;47.740;7.606;2024-01-07T11:58:52;11.53;;;7.83;;
7501;SDS011;3792;47.740;7.606;2024-01-07T12:01:23;13.63;;;9.63;;
7501;SDS011;3792;47.740;7.606;2024-01-07T12:03:51;13.03;;;8.90;;
7501;SDS011;3792;47.740;7.606;2024-01-07T12:06:18;20.17;;;10.80;;
7501;SDS011;3792;47.740;7.606;2024-01-07T12:08:46;9.00;;;6.80;;
7501;SDS011;3792;47.740;7.606;2024-01-07T12:11:13;12.90;;;8.37;;
7501;SDS011;3792;47.740;7.606;2024-01-07T12:13:43;10.87;;;7.67;;
7501;SDS011;3792;47.740;7.606;2024-01-07T12:16:10;11.33;;;7.57;;
7501;SDS011;3792;47.740;7.606;2024-01-07T12:18:39;11.20;;;8.10;;
7501;SDS011;3792;47.740;7.606;2024-01-07T12:21:07;8.73;;;7.50;;
7501;SDS011;3792;47.740;7.606;2024-01-07T12:23:34;10.90;;;7.70;;
7501;SDS011;3792;47.740;7.606;2024-01-07T12:26:06;10.13;;;7.37;;
7501;SDS011;3792;47.740;7.606;2024-01-07T12:28:34;10.20;;;7.80;;
7501;SDS011;3792;47.740;7.606;2024-01-07T12:31:01;12.67;;;8.87;;
7501;SDS011;3792;47.740;7.606;2024-01-07T12:33:29;12.37;;;8.50;;
7501;SDS011;3792;47.740;7.606;2024-01-07T12:35:59;12.50;;;8.60;;
7501;SDS011;3792;47.740;7.606;2024-01-07T12:38:29;9.77;;;7.57;;
7501;SDS011;3792;47.740;7.606;2024-01-07T12:40:56;10.60;;;7.83;;
7501;SDS011;3792;47.740;7.606;2024-01-07T12:43:23;13.30;;;9.17;;
7501;SDS011;3792;47.740;7.606;2024-01-07T12:45:50;9.90;;;8.20;;
7501;SDS011;3792;47.740;7.606;2024-01-07T12:48:18;12.57;;;8.83;;
7501;SDS011;3792;47.740;7.606;2024-01-07T12:50:45;13.17;;;9.17;;
7501;SDS011;3792;47.740;7.606;2024-01-07T12:53:13;9.83;;;7.70;;
7501;SDS011;3792;47.740;7.606;2024-01-07T12:55:40;13.03;;;10.07;;
7501;SDS011;3792;47.740;7.606;2024-01-07T12:58:07;16.27;;;11.43;;
7501;SDS011;3792;47.740;7.606;2024-01-07T13:00:34;14.73;;;10.23;;
7501;SDS011;3792;47.740;7.606;2024-01-07T13:03:01;11.70;;;8.67;;
7501;SDS011;3792;47.740;7.606;2024-01-07T13:05:30;11.93;;;9.73;;
7501;SDS011;3792;47.740;7.606;2024-01-07T13:07:57;12.17;;;9.07;;
7501;SDS011;3792;47.740;7.606;2024-01-07T13:10:25;13.43;;;9.50;;
7501;SDS011;3792;47.740;7.606;2024-01-07T13:12:52;9.70;;;7.43;;
7501;SDS011;3792;47.740;7.606;2024-01-07T13:15:19;10.87;;;8.47;;
7501;SDS011;3792;47.740;7.606;2024-01-07T13:17:47;13.80;;;10.20;;
7501;SDS011;3792;47.740;7.606;2024-01-07T13:20:14;16.07;;;10.60;;
7501;SDS011;3792;47.740;7.606;2024-01-07T13:22:45;12.43;;;9.23;;
7501;SDS011;3792;47.740;7.606;2024-01-07T13:25:12;11.73;;;8.80;;
7501;SDS011;3792;47.740;7.606;2024-01-07T13:27:41;11.93;;;8.63;;
7501;SDS011;3792;47.740;7.606;2024-01-07T13:30:11;12.00;;;9.40;;
7501;SDS011;3792;47.740;7.606;2024-01-07T13:32:38;12.43;;;9.13;;
7501;SDS011;3792;47.740;7.606;2024-01-07T13:35:06;13.47;;;9.70;;
7501;SDS011;3792;47.740;7.606;2024-01-07T13:37:35;13.07;;;10.33;;
7501;SDS011;3792;47.740;7.606;2024-01-07T13:40:02;12.73;;;8.83;;
7501;SDS011;3792;47.740;7.606;2024-01-07T13:42:30;12.67;;;9.60;;
7501;SDS011;3792;47.740;7.606;2024-01-07T13:45:00;13.97;;;9.10;;
7501;SDS011;3792;47.740;7.606;2024-01-07T13:47:27;12.17;;;9.67;;
7501;SDS011;3792;47.740;7.606;2024-01-07T13:49:54;10.17;;;8.07;;
7501;SDS011;3792;47.740;7.606;2024-01-07T13:52:22;12.37;;;8.90;;
7501;SDS011;3792;47.740;7.606;2024-01-07T13:54:49;12.63;;;9.33;;
7501;SDS011;3792;47.740;7.606;2024-01-07T13:57:16;12.30;;;9.00;;
7501;SDS011;3792;47.740;7.606;2024-01-07T13:59:43;14.73;;;8.73;;
7501;SDS011;3792;47.740;7.606;2024-01-07T14:02:11;11.60;;;8.63;;
7501;SDS011;3792;47.740;7.606;2024-01-07T14:04:38;10.80;;;9.13;;
7501;SDS011;3792;47.740;7.606;2024-01-07T14:07:05;10.17;;;8.30;;
7501;SDS011;3792;47.740;7.606;2024-01-07T14:09:32;11.57;;;8.77;;
7501;SDS011;3792;47.740;7.606;2024-01-07T14:11:59;12.40;;;8.07;;
7501;SDS011;3792;47.740;7.606;2024-01-07T14:14:32;12.77;;;8.50;;
7501;SDS011;3792;47.740;7.606;2024-01-07T14:17:10;13.47;;;9.67;;
7501;SDS011;3792;47.740;7.606;2024-01-07T14:19:46;12.83;;;9.07;;
7501;SDS011;3792;47.740;7.606;2024-01-07T14:22:14;14.27;;;10.43;;
7501;SDS011;3792;47.740;7.606;2024-01-07T14:24:41;13.30;;;10.20;;
7501;SDS011;3792;47.740;7.606;2024-01-07T14:27:08;12.10;;;8.60;;
7501;SDS011;3792;47.740;7.606;2024-01-07T14:29:36;11.43;;;9.17;;
7501;SDS011;3792;47.740;7.606;2024-01-07T14:32:04;13.70;;;9.37;;
7501;SDS011;3792;47.740;7.606;2024-01-07T14:34:33;16.93;;;12.13;;
7501;SDS011;3792;47.740;7.606;2024-01-07T14:37:01;14.83;;;10.53;;
7501;SDS011;3792;47.740;7.606;2024-01-07T14:39:28;16.03;;;10.40;;
7501;SDS011;3792;47.740;7.606;2024-01-07T14:41:55;15.77;;;10.27;;
7501;SDS011;3792;47.740;7.606;2024-01-07T14:44:22;14.07;;;9.70;;
7501;SDS011;3792;47.740;7.606;2024-01-07T14:46:49;13.33;;;10.13;;
7501;SDS011;3792;47.740;7.606;2024-01-07T14:49:16;18.13;;;11.60;;
7501;SDS011;3792;47.740;7.606;2024-01-07T14:51:45;19.83;;;12.77;;
7501;SDS011;3792;47.740;7.606;2024-01-07T14:54:12;13.63;;;9.43;;
7501;SDS011;3792;47.740;7.606;2024-01-07T14:56:39;13.00;;;9.33;;
7501;SDS011;3792;47.740;7.606;2024-01-07T14:59:07;11.83;;;8.83;;
7501;SDS011;3792;47.740;7.606;2024-01-07T15:01:35;10.47;;;7.90;;
7501;SDS011;3792;47.740;7.606;2024-01-07T15:04:02;12.07;;;8.83;;
7501;SDS011;3792;47.740;7.606;2024-01-07T15:06:29;15.33;;;10.57;;
7501;SDS011;3792;47.740;7.606;2024-01-07T15:08:57;12.23;;;8.47;;
7501;SDS011;3792;47.740;7.606;2024-01-07T15:11:24;11.70;;;8.93;;
7501;SDS011;3792;47.740;7.606;2024-01-07T15:13:51;12.90;;;8.97;;
7501;SDS011;3792;47.740;7.606;2024-01-07T15:16:18;12.53;;;9.17;;
7501;SDS011;3792;47.740;7.606;2024-01-07T15:18:45;10.17;;;7.70;;